createdAt,value
2023-05-01T00:01:53.254Z,101382.72
2023-05-01T00:04:22.383Z,101376.19
2023-05-01T00:06:50.683Z,101364.56
2023-05-01T00:09:19.167Z,101371.81
2023-05-01T00:11:47.277Z,101371.19
2023-05-01T00:14:15.317Z,101369.78
2023-05-01T00:16:46.192Z,101361.44
2023-05-01T00:19:18.231Z,101354.47
2023-05-01T00:21:47.933Z,101358.53
2023-05-01T00:24:16.489Z,101356.63
2023-05-01T00:26:45.024Z,101355.44
2023-05-01T00:29:13.108Z,101347.69
2023-05-01T00:31:42.558Z,101344.34
2023-05-01T00:34:12.683Z,101345.41
2023-05-01T00:36:40.990Z,101337.81
2023-05-01T00:39:09.087Z,101344.44
2023-05-01T00:41:37.321Z,101331.03
2023-05-01T00:44:05.798Z,101334.56
2023-05-01T00:46:35.999Z,101326.66
2023-05-01T00:49:05.165Z,101327.88
2023-05-01T00:51:35.199Z,101329.34
2023-05-01T00:54:04.557Z,101319.44
2023-05-01T00:56:33.009Z,101314.38
2023-05-01T00:59:01.859Z,101320.16
2023-05-01T01:01:30.332Z,101318.75
2023-05-01T01:03:58.478Z,101319.81
2023-05-01T01:06:43.812Z,101306.91
2023-05-01T01:09:29.722Z,101304.94
2023-05-01T01:12:10.468Z,101309.81
2023-05-01T01:14:49.477Z,101307.59
2023-05-01T01:17:31.680Z,101293.34
2023-05-01T01:20:34.048Z,101302.78
2023-05-01T01:23:36.104Z,101296.72
2023-05-01T01:26:29.330Z,101293.34
2023-05-01T01:29:22.915Z,101293.59
2023-05-01T01:32:08.927Z,101291.88
2023-05-01T01:34:46.082Z,101284.66
2023-05-01T01:37:24.853Z,101287.56
2023-05-01T01:40:02.298Z,101288.53
2023-05-01T01:42:37.480Z,101287.56
2023-05-01T01:45:14.567Z,101280.19
2023-05-01T01:47:45.432Z,101282.13
2023-05-01T01:50:18.339Z,101271.84
2023-05-01T01:52:50.385Z,101271.59
2023-05-01T01:55:23.789Z,101264.13
2023-05-01T01:57:53.528Z,101270.53
2023-05-01T02:00:23.694Z,101263.88
2023-05-01T02:02:54.653Z,101266.28
2023-05-01T02:05:26.912Z,101264.09
2023-05-01T02:07:57.356Z,101260.00
2023-05-01T02:10:28.671Z,101264.97
2023-05-01T02:12:59.208Z,101252.16
2023-05-01T02:15:29.515Z,101251.56
2023-05-01T02:17:59.237Z,101252.00
2023-05-01T02:20:30.286Z,101250.44
2023-05-01T02:23:00.277Z,101240.28
2023-05-01T02:25:32.758Z,101237.41
2023-05-01T02:28:04.909Z,101229.53
2023-05-01T02:30:33.170Z,101228.09
2023-05-01T02:33:01.282Z,101232.66
2023-05-01T02:35:30.707Z,101220.81
2023-05-01T02:37:59.020Z,101227.38
2023-05-01T02:40:28.629Z,101219.75
2023-05-01T02:42:56.807Z,101211.88
2023-05-01T02:45:26.989Z,101209.84
2023-05-01T02:48:00.644Z,101208.50
2023-05-01T02:50:31.023Z,101206.09
2023-05-01T02:53:02.309Z,101202.81
2023-05-01T02:55:33.076Z,101197.00
2023-05-01T02:58:02.582Z,101191.59
2023-05-01T03:00:32.478Z,101193.28
2023-05-01T03:03:03.868Z,101182.97
2023-05-01T03:05:41.547Z,101186.47
2023-05-01T03:08:09.961Z,101184.75
2023-05-01T03:10:40.648Z,101183.81
2023-05-01T03:13:08.770Z,101176.78
2023-05-01T03:15:36.829Z,101177.53
2023-05-01T03:18:05.362Z,101174.25
2023-05-01T03:20:34.888Z,101168.81
2023-05-01T03:23:03.220Z,101175.56
2023-05-01T03:25:31.329Z,101163.28
2023-05-01T03:27:59.440Z,101164.69
2023-05-01T03:30:27.443Z,101165.94
2023-05-01T03:32:56.289Z,101164.50
2023-05-01T03:35:24.362Z,101163.50
2023-05-01T03:37:53.906Z,101154.31
2023-05-01T03:40:22.029Z,101149.47
2023-05-01T03:42:50.212Z,101145.88
2023-05-01T03:45:18.459Z,101142.72
2023-05-01T03:47:46.606Z,101142.94
2023-05-01T03:50:14.726Z,101144.91
2023-05-01T03:52:42.962Z,101146.81
2023-05-01T03:55:12.544Z,101135.94
2023-05-01T03:57:41.850Z,101138.59
2023-05-01T04:00:12.010Z,101133.75
2023-05-01T04:02:40.215Z,101133.53
2023-05-01T04:05:09.274Z,101127.13
2023-05-01T04:07:37.613Z,101129.66
2023-05-01T04:10:07.220Z,101127.75
2023-05-01T04:12:36.722Z,101129.88
2023-05-01T04:15:05.217Z,101131.31
2023-05-01T04:17:33.378Z,101115.75
2023-05-01T04:20:01.683Z,101117.94
2023-05-01T04:22:30.218Z,101117.09
2023-05-01T04:24:58.331Z,101118.66
2023-05-01T04:27:26.649Z,101120.97
2023-05-01T04:29:56.600Z,101108.53
2023-05-01T04:32:24.889Z,101107.59
2023-05-01T04:34:53.448Z,101106.75
2023-05-01T04:37:21.485Z,101113.00
2023-05-01T04:39:50.857Z,101108.66
2023-05-01T04:42:18.943Z,101110.34
2023-05-01T04:44:47.338Z,101103.09
2023-05-01T04:47:16.756Z,101107.97
2023-05-01T04:49:44.779Z,101106.25
2023-05-01T04:52:13.093Z,101119.44
2023-05-01T04:54:41.230Z,101107.72
2023-05-01T04:57:09.297Z,101102.41
2023-05-01T04:59:37.684Z,101103.50
2023-05-01T05:02:06.015Z,101108.44
2023-05-01T05:04:35.540Z,101109.38
2023-05-01T05:07:03.588Z,101107.22
2023-05-01T05:09:31.650Z,101112.53
2023-05-01T05:11:59.704Z,101107.00
2023-05-01T05:14:27.800Z,101108.69
2023-05-01T05:16:56.367Z,101105.78
2023-05-01T05:19:24.517Z,101098.78
2023-05-01T05:21:53.961Z,101106.75
2023-05-01T05:24:22.006Z,101102.28
2023-05-01T05:26:50.582Z,101104.84
2023-05-01T05:29:18.680Z,101104.59
2023-05-01T05:31:47.301Z,101101.56
2023-05-01T05:34:15.660Z,101099.50
2023-05-01T05:36:43.863Z,101099.50
2023-05-01T05:39:13.806Z,101099.41
2023-05-01T05:41:41.862Z,101101.69
2023-05-01T05:44:09.890Z,101096.13
2023-05-01T05:46:38.006Z,101092.41
2023-05-01T05:49:06.089Z,101101.00
2023-05-01T05:51:34.141Z,101095.69
2023-05-01T05:54:02.194Z,101090.13
2023-05-01T05:56:31.612Z,101094.22
2023-05-01T05:59:03.337Z,101093.63
2023-05-01T06:01:32.316Z,101103.03
2023-05-01T06:04:00.907Z,101082.34
2023-05-01T06:06:29.193Z,101083.78
2023-05-01T06:08:57.256Z,101086.94
2023-05-01T06:11:26.007Z,101090.78
2023-05-01T06:13:56.605Z,101086.94
2023-05-01T06:16:25.557Z,101084.72
2023-05-01T06:18:53.740Z,101083.38
2023-05-01T06:21:21.909Z,101079.50
2023-05-01T06:23:50.105Z,101071.13
2023-05-01T06:26:18.154Z,101077.06
2023-05-01T06:28:46.228Z,101065.03
2023-05-01T06:31:15.691Z,101063.72
2023-05-01T06:33:43.777Z,101064.91
2023-05-01T06:36:11.812Z,101061.81
2023-05-01T06:38:40.498Z,101060.50
2023-05-01T06:41:08.668Z,101061.78
2023-05-01T06:43:36.693Z,101066.31
2023-05-01T06:46:05.089Z,101060.34
2023-05-01T06:48:34.456Z,101057.75
2023-05-01T06:51:02.556Z,101058.06
2023-05-01T06:53:30.637Z,101053.09
2023-05-01T06:55:58.790Z,101054.25
2023-05-01T06:58:26.913Z,101049.34
2023-05-01T07:00:55.238Z,101058.50
2023-05-01T07:03:23.430Z,101052.38
2023-05-01T07:05:52.907Z,101054.63
2023-05-01T07:08:21.385Z,101038.25
2023-05-01T07:10:50.432Z,101038.13
2023-05-01T07:13:19.441Z,101039.28
2023-05-01T07:15:48.754Z,101041.16
2023-05-01T07:18:17.124Z,101038.50
2023-05-01T07:20:45.573Z,101034.44
2023-05-01T07:23:15.014Z,101034.16
2023-05-01T07:25:44.301Z,101025.47
2023-05-01T07:28:12.481Z,101030.69
2023-05-01T07:30:41.374Z,101029.97
2023-05-01T07:33:09.501Z,101024.09
2023-05-01T07:35:37.619Z,101020.75
2023-05-01T07:38:05.705Z,101024.44
2023-05-01T07:40:36.594Z,101016.00
2023-05-01T07:43:04.943Z,101012.78
2023-05-01T07:45:33.058Z,101019.22
2023-05-01T07:48:01.286Z,101023.84
2023-05-01T07:50:29.429Z,101013.56
2023-05-01T07:52:57.651Z,101019.06
2023-05-01T07:55:25.994Z,101007.50
2023-05-01T07:57:56.092Z,101007.06
2023-05-01T08:00:24.514Z,101009.13
2023-05-01T08:02:53.073Z,101002.63
2023-05-01T08:05:21.354Z,100999.53
2023-05-01T08:07:49.375Z,100998.22
2023-05-01T08:10:17.662Z,100992.56
2023-05-01T08:12:45.898Z,100992.94
2023-05-01T08:15:15.585Z,100985.03
2023-05-01T08:17:43.634Z,100983.50
2023-05-01T08:20:13.993Z,100984.59
2023-05-01T08:22:42.124Z,100980.34
2023-05-01T08:25:10.319Z,100973.50
2023-05-01T08:27:38.569Z,100986.13
2023-05-01T08:30:08.669Z,100977.03
2023-05-01T08:32:38.138Z,100980.09
2023-05-01T08:35:07.333Z,100975.19
2023-05-01T08:37:35.610Z,100969.44
2023-05-01T08:40:08.311Z,100973.00
2023-05-01T08:42:38.775Z,100974.47
2023-05-01T08:45:10.044Z,100970.91
2023-05-01T08:47:41.439Z,100966.25
2023-05-01T08:50:12.447Z,100964.94
2023-05-01T08:52:43.395Z,100962.81
2023-05-01T08:55:15.213Z,100957.91
2023-05-01T08:57:47.254Z,100957.78
2023-05-01T09:00:20.516Z,100954.44
2023-05-01T09:02:52.430Z,100957.84
2023-05-01T09:05:21.975Z,100964.94
2023-05-01T09:07:50.187Z,100950.72
2023-05-01T09:10:19.649Z,100953.44
2023-05-01T09:12:56.298Z,100951.75
2023-05-01T09:15:26.934Z,100956.16
2023-05-01T09:17:58.746Z,100947.94
2023-05-01T09:20:29.594Z,100946.72
2023-05-01T09:22:58.295Z,100936.16
2023-05-01T09:25:26.372Z,100934.66
2023-05-01T09:27:56.959Z,100932.63
2023-05-01T09:30:33.594Z,100937.50
2023-05-01T09:33:14.341Z,100925.53
2023-05-01T09:35:54.250Z,100922.00
2023-05-01T09:38:25.379Z,100922.91
2023-05-01T09:40:57.159Z,100915.00
2023-05-01T09:43:29.795Z,100909.94
2023-05-01T09:46:03.714Z,100908.59
2023-05-01T09:48:35.809Z,100907.16
2023-05-01T09:51:22.754Z,100905.78
2023-05-01T09:53:52.258Z,100903.81
2023-05-01T09:56:21.624Z,100904.16
2023-05-01T09:58:51.649Z,100895.66
2023-05-01T10:01:20.500Z,100906.91
2023-05-01T10:03:56.937Z,100896.63
2023-05-01T10:06:29.542Z,100902.31
2023-05-01T10:08:57.860Z,100891.47
2023-05-01T10:11:27.137Z,100902.06
2023-05-01T10:14:13.322Z,100896.41
2023-05-01T10:16:41.524Z,100886.22
2023-05-01T10:19:12.587Z,100890.31
2023-05-01T10:21:40.796Z,100891.66
2023-05-01T10:24:10.069Z,100885.16
2023-05-01T10:26:38.869Z,100891.03
2023-05-01T10:29:07.140Z,100875.88
2023-05-01T10:31:35.776Z,100875.22
2023-05-01T10:34:05.241Z,100875.38
2023-05-01T10:36:39.468Z,100872.78
2023-05-01T10:39:08.073Z,100866.22
2023-05-01T10:42:11.233Z,100854.94
2023-05-01T10:44:39.592Z,100856.94
2023-05-01T10:47:47.418Z,100857.06
2023-05-01T10:50:16.447Z,100851.75
2023-05-01T10:53:23.655Z,100849.84
2023-05-01T10:55:51.995Z,100842.00
2023-05-01T10:58:58.748Z,100845.03
2023-05-01T11:01:36.552Z,100840.56
2023-05-01T11:04:08.197Z,100837.13
2023-05-01T11:06:38.321Z,100830.13
2023-05-01T11:09:39.248Z,100825.63
2023-05-01T11:12:08.719Z,100823.19
2023-05-01T11:15:07.834Z,100827.22
2023-05-01T11:17:50.306Z,100813.88
2023-05-01T11:20:50.320Z,100811.88
2023-05-01T11:23:25.399Z,100813.16
2023-05-01T11:26:08.276Z,100816.13
2023-05-01T11:28:40.332Z,100812.00
2023-05-01T11:31:08.598Z,100801.16
2023-05-01T11:33:36.879Z,100801.59
2023-05-01T11:36:05.817Z,100800.38
2023-05-01T11:38:33.943Z,100807.88
2023-05-01T11:41:05.174Z,100794.53
2023-05-01T11:43:33.568Z,100792.66
2023-05-01T11:46:04.742Z,100796.19
2023-05-01T11:48:33.411Z,100788.69
2023-05-01T11:51:01.483Z,100788.28
2023-05-01T11:53:30.768Z,100781.16
2023-05-01T11:55:59.380Z,100789.69
2023-05-01T11:58:36.530Z,100778.41
2023-05-01T12:01:07.156Z,100779.66
2023-05-01T12:03:45.555Z,100781.94
2023-05-01T12:06:14.968Z,100774.84
2023-05-01T12:08:51.651Z,100766.44
2023-05-01T12:11:21.305Z,100778.50
2023-05-01T12:13:51.184Z,100769.75
2023-05-01T12:16:19.420Z,100763.84
2023-05-01T12:18:48.226Z,100763.63
2023-05-01T12:21:19.775Z,100772.13
2023-05-01T12:23:48.118Z,100768.31
2023-05-01T12:26:23.450Z,100768.03
2023-05-01T12:29:00.726Z,100781.13
2023-05-01T12:31:34.778Z,100769.63
2023-05-01T12:34:08.908Z,100781.00
2023-05-01T12:36:42.702Z,100769.31
2023-05-01T12:39:16.141Z,100770.88
2023-05-01T12:41:50.357Z,100765.00
2023-05-01T12:44:30.688Z,100754.13
2023-05-01T12:47:07.820Z,100742.91
2023-05-01T12:49:40.588Z,100745.47
2023-05-01T12:52:13.044Z,100737.59
2023-05-01T12:54:46.281Z,100742.56
2023-05-01T12:57:20.640Z,100736.41
2023-05-01T13:00:05.768Z,100729.97
2023-05-01T13:02:38.242Z,100735.13
2023-05-01T13:05:15.123Z,100722.66
2023-05-01T13:07:53.030Z,100722.19
2023-05-01T13:10:33.869Z,100731.16
2023-05-01T13:13:07.320Z,100724.53
2023-05-01T13:15:40.978Z,100718.84
2023-05-01T13:18:14.195Z,100727.25
2023-05-01T13:20:46.030Z,100718.03
2023-05-01T13:23:18.388Z,100714.25
2023-05-01T13:25:56.953Z,100707.16
2023-05-01T13:28:29.823Z,100711.44
2023-05-01T13:31:03.195Z,100707.59
2023-05-01T13:33:35.970Z,100700.97
2023-05-01T13:36:21.608Z,100702.56
2023-05-01T13:38:58.207Z,100702.84
2023-05-01T13:41:31.006Z,100705.31
2023-05-01T13:44:02.599Z,100706.44
2023-05-01T13:46:36.794Z,100697.63
2023-05-01T13:49:09.761Z,100705.97
2023-05-01T13:51:48.782Z,100701.66
2023-05-01T13:54:20.514Z,100703.91
2023-05-01T13:56:52.497Z,100701.66
2023-05-01T13:59:24.440Z,100700.72
2023-05-01T14:01:57.681Z,100698.34
2023-05-01T14:04:29.835Z,100702.66
2023-05-01T14:07:01.711Z,100700.91
2023-05-01T14:09:39.111Z,100697.50
2023-05-01T14:12:11.389Z,100698.91
2023-05-01T14:14:49.116Z,100685.59
2023-05-01T14:17:26.493Z,100683.41
2023-05-01T14:19:58.513Z,100680.09
2023-05-01T14:22:35.543Z,100681.28
2023-05-01T14:25:28.443Z,100679.25
2023-05-01T14:28:02.491Z,100670.47
2023-05-01T14:30:38.496Z,100673.91
2023-05-01T14:33:13.352Z,100673.44
2023-05-01T14:35:52.099Z,100670.09
2023-05-01T14:38:38.544Z,100667.34
2023-05-01T14:41:13.829Z,100671.75
2023-05-01T14:43:46.948Z,100674.06
2023-05-01T14:46:29.821Z,100675.41
2023-05-01T14:49:04.012Z,100685.00
2023-05-01T14:51:37.074Z,100685.50
2023-05-01T14:54:12.404Z,100680.25
2023-05-01T14:56:46.512Z,100675.97
2023-05-01T14:59:18.601Z,100671.69
2023-05-01T15:01:50.483Z,100676.47
2023-05-01T15:04:24.319Z,100670.66
2023-05-01T15:06:56.050Z,100670.50
2023-05-01T15:09:27.837Z,100670.50
2023-05-01T15:11:59.708Z,100670.09
2023-05-01T15:14:31.575Z,100663.19
2023-05-01T15:17:03.602Z,100662.31
2023-05-01T15:19:37.324Z,100660.38
2023-05-01T15:22:09.186Z,100659.34
2023-05-01T15:24:40.826Z,100669.06
2023-05-01T15:27:13.081Z,100658.75
2023-05-01T15:29:44.668Z,100669.84
2023-05-01T15:32:16.735Z,100663.91
2023-05-01T15:34:55.092Z,100656.56
2023-05-01T15:37:27.085Z,100662.91
2023-05-01T15:39:59.457Z,100651.50
2023-05-01T15:42:32.858Z,100652.47
2023-05-01T15:45:05.760Z,100655.66
2023-05-01T15:47:38.059Z,100651.63
2023-05-01T15:50:14.042Z,100654.00
2023-05-01T15:52:46.599Z,100654.25
2023-05-01T15:55:21.637Z,100645.72
2023-05-01T15:57:53.314Z,100649.75
2023-05-01T16:00:25.358Z,100656.72
2023-05-01T16:02:57.129Z,100654.84
2023-05-01T16:05:31.209Z,100654.81
2023-05-01T16:08:06.714Z,100651.88
2023-05-01T16:10:38.669Z,100652.47
2023-05-01T16:13:12.749Z,100639.78
2023-05-01T16:15:44.382Z,100638.22
2023-05-01T16:18:24.323Z,100646.50
2023-05-01T16:20:57.966Z,100648.31
2023-05-01T16:23:30.954Z,100644.75
2023-05-01T16:26:02.913Z,100641.31
2023-05-01T16:28:37.396Z,100644.53
2023-05-01T16:31:26.612Z,100635.38
2023-05-01T16:33:58.929Z,100640.38
2023-05-01T16:36:32.328Z,100629.94
2023-05-01T16:39:04.187Z,100643.19
2023-05-01T16:41:43.211Z,100637.75
2023-05-01T16:44:16.186Z,100645.94
2023-05-01T16:46:54.514Z,100641.44
2023-05-01T16:49:28.233Z,100642.59
2023-05-01T16:52:04.018Z,100638.59
2023-05-01T16:54:36.605Z,100637.53
2023-05-01T16:57:08.209Z,100640.16
2023-05-01T16:59:40.094Z,100653.19
2023-05-01T17:02:13.044Z,100652.25
2023-05-01T17:04:45.559Z,100651.41
2023-05-01T17:07:19.366Z,100639.78
2023-05-01T17:09:51.271Z,100646.66
2023-05-01T17:12:23.327Z,100646.28
2023-05-01T17:14:55.165Z,100642.72
2023-05-01T17:17:26.904Z,100650.50
2023-05-01T17:19:59.179Z,100647.88
2023-05-01T17:22:32.437Z,100651.56
2023-05-01T17:25:04.296Z,100654.38
2023-05-01T17:27:37.615Z,100664.34
2023-05-01T17:30:12.201Z,100652.94
2023-05-01T17:32:44.149Z,100654.56
2023-05-01T17:35:19.008Z,100659.63
2023-05-01T17:37:52.007Z,100659.09
2023-05-01T17:40:24.334Z,100660.63
2023-05-01T17:42:56.162Z,100655.94
2023-05-01T17:45:28.128Z,100655.38
2023-05-01T17:48:00.710Z,100656.97
2023-05-01T17:50:32.392Z,100653.72
2023-05-01T17:53:05.300Z,100656.91
2023-05-01T17:55:38.830Z,100654.78
2023-05-01T17:58:10.396Z,100655.53
2023-05-01T18:00:42.479Z,100658.22
2023-05-01T18:03:14.162Z,100664.91
2023-05-01T18:05:45.943Z,100662.91
2023-05-01T18:08:19.121Z,100670.91
2023-05-01T18:10:51.070Z,100671.19
2023-05-01T18:13:27.801Z,100676.41
2023-05-01T18:15:59.606Z,100673.38
2023-05-01T18:18:31.616Z,100674.03
2023-05-01T18:21:03.553Z,100674.31
2023-05-01T18:23:37.403Z,100673.69
2023-05-01T18:26:09.062Z,100678.34
2023-05-01T18:28:40.985Z,100680.91
2023-05-01T18:31:14.237Z,100684.94
2023-05-01T18:33:47.094Z,100686.00
2023-05-01T18:36:18.971Z,100694.41
2023-05-01T18:38:52.084Z,100688.59
2023-05-01T18:41:26.355Z,100695.06
2023-05-01T18:44:01.247Z,100696.38
2023-05-01T18:46:33.183Z,100696.59
2023-05-01T18:49:05.035Z,100714.16
2023-05-01T18:51:37.277Z,100710.72
2023-05-01T18:54:10.289Z,100715.53
2023-05-01T18:56:42.127Z,100718.13
2023-05-01T18:59:13.959Z,100719.41
2023-05-01T19:01:45.979Z,100720.66
2023-05-01T19:04:19.077Z,100716.53
2023-05-01T19:06:50.822Z,100713.00
2023-05-01T19:09:24.214Z,100724.50
2023-05-01T19:11:56.227Z,100723.22
2023-05-01T19:14:28.066Z,100734.91
2023-05-01T19:16:59.941Z,100738.06
2023-05-01T19:19:31.914Z,100735.34
2023-05-01T19:22:05.921Z,100743.47
2023-05-01T19:24:39.005Z,100730.75
2023-05-01T19:27:11.667Z,100739.53
2023-05-01T19:29:43.276Z,100739.72
2023-05-01T19:32:15.335Z,100738.69
2023-05-01T19:34:46.942Z,100739.94
2023-05-01T19:37:18.808Z,100734.72
2023-05-01T19:39:51.787Z,100737.22
2023-05-01T19:42:23.770Z,100734.09
2023-05-01T19:44:55.575Z,100734.50
2023-05-01T19:47:27.491Z,100743.25
2023-05-01T19:49:59.292Z,100743.44
2023-05-01T19:52:31.232Z,100746.16
2023-05-01T19:55:08.102Z,100742.56
2023-05-01T19:57:39.780Z,100742.38
2023-05-01T20:00:14.360Z,100745.25
2023-05-01T20:02:47.502Z,100748.19
2023-05-01T20:05:19.734Z,100748.97
2023-05-01T20:07:51.539Z,100751.91
2023-05-01T20:10:25.260Z,100749.63
2023-05-01T20:12:56.962Z,100753.94
2023-05-01T20:15:28.864Z,100760.44
2023-05-01T20:18:01.282Z,100765.19
2023-05-01T20:20:34.957Z,100769.97
2023-05-01T20:23:18.838Z,100768.44
2023-05-01T20:25:53.350Z,100772.63
2023-05-01T20:28:25.797Z,100769.69
2023-05-01T20:30:57.609Z,100777.97
2023-05-01T20:33:29.486Z,100781.25
2023-05-01T20:36:01.590Z,100775.19
2023-05-01T20:38:33.182Z,100777.50
2023-05-01T20:41:06.115Z,100790.56
2023-05-01T20:43:38.313Z,100791.22
2023-05-01T20:46:10.058Z,100794.50
2023-05-01T20:48:41.925Z,100801.16
2023-05-01T20:51:13.850Z,100807.59
2023-05-01T20:53:45.764Z,100812.38
2023-05-01T20:56:18.750Z,100804.69
2023-05-01T20:58:50.618Z,100806.72
2023-05-01T21:01:22.523Z,100810.34
2023-05-01T21:03:54.603Z,100817.44
2023-05-01T21:06:26.907Z,100820.97
2023-05-01T21:08:59.692Z,100822.38
2023-05-01T21:11:32.905Z,100833.97
2023-05-01T21:14:04.806Z,100838.03
2023-05-01T21:16:39.840Z,100841.41
2023-05-01T21:19:13.838Z,100833.88
2023-05-01T21:21:45.734Z,100835.47
2023-05-01T21:24:24.178Z,100849.09
2023-05-01T21:26:58.528Z,100837.66
2023-05-01T21:29:30.912Z,100843.03
2023-05-01T21:32:04.169Z,100842.00
2023-05-01T21:34:36.276Z,100853.53
2023-05-01T21:37:08.707Z,100861.41
2023-05-01T21:39:41.560Z,100870.16
2023-05-01T21:42:15.492Z,100876.63
2023-05-01T21:44:47.288Z,100885.41
2023-05-01T21:47:19.976Z,100887.19
2023-05-01T21:49:56.861Z,100885.91
2023-05-01T21:52:29.605Z,100887.75
2023-05-01T21:55:01.790Z,100888.69
2023-05-01T21:57:38.180Z,100889.78
2023-05-01T22:00:12.288Z,100892.41
2023-05-01T22:02:47.460Z,100887.75
2023-05-01T22:05:22.459Z,100897.72
2023-05-01T22:07:54.885Z,100891.56
2023-05-01T22:10:26.484Z,100889.78
2023-05-01T22:12:59.639Z,100897.03
2023-05-01T22:15:31.407Z,100898.38
2023-05-01T22:18:03.357Z,100900.69
2023-05-01T22:20:35.031Z,100895.94
2023-05-01T22:23:07.452Z,100907.28
2023-05-01T22:25:39.382Z,100898.44
2023-05-01T22:28:12.567Z,100911.66
2023-05-01T22:30:44.458Z,100911.19
2023-05-01T22:33:16.470Z,100916.41
2023-05-01T22:35:48.183Z,100920.94
2023-05-01T22:38:19.969Z,100924.66
2023-05-01T22:40:51.832Z,100923.84
2023-05-01T22:43:25.971Z,100926.63
2023-05-01T22:45:57.704Z,100924.94
2023-05-01T22:48:29.613Z,100928.38
2023-05-01T22:51:01.450Z,100926.41
2023-05-01T22:53:33.319Z,100923.72
2023-05-01T22:56:05.172Z,100933.81
2023-05-01T22:58:38.504Z,100937.78
2023-05-01T23:01:10.498Z,100935.06
2023-05-01T23:03:42.279Z,100937.69
2023-05-01T23:06:13.971Z,100934.81
2023-05-01T23:08:45.889Z,100939.53
2023-05-01T23:11:21.874Z,100945.28
2023-05-01T23:13:55.403Z,100954.22
2023-05-01T23:16:27.558Z,100939.50
2023-05-01T23:19:00.774Z,100940.53
2023-05-01T23:21:32.623Z,100950.34
2023-05-01T23:24:06.413Z,100945.25
2023-05-01T23:26:42.038Z,100943.56
2023-05-01T23:29:15.935Z,100942.72
2023-05-01T23:31:51.771Z,100942.25
2023-05-01T23:34:23.470Z,100941.41
2023-05-01T23:36:55.293Z,100954.22
2023-05-01T23:39:27.145Z,100951.19
2023-05-01T23:41:59.078Z,100949.19
2023-05-01T23:44:32.326Z,100948.69
2023-05-01T23:47:04.554Z,100955.44
2023-05-01T23:49:36.214Z,100947.25
2023-05-01T23:52:08.313Z,100944.97
2023-05-01T23:54:40.096Z,100950.53
2023-05-01T23:57:11.979Z,100946.16
2023-05-01T23:59:45.127Z,100947.38
